Time;durP1;ratioP1;P1;durP2;ratioP2;P2;SDS_P1;SDS_P2;PMS_P1;PMS_P2;Temp;Humidity;BMP_temperature;BMP_pressure;BME280_temperature;BME280_humidity;BME280_pressure;Samples;Min_cycle;Max_cycle;Signal;HPM_P1;HPM_P2
2021/08/06 00:00:15;;;;;;;4.35;1.02;;;;;;;18.82;69.35;98942.69;2182769;40;20047;-77
2021/08/06 00:01:47;;;;;;;3.00;1.30;;;;;;;18.83;69.41;98946.22;2183216;40;20052;-77
2021/08/06 00:03:19;;;;;;;3.13;1.10;;;;;;;18.89;69.37;98936.38;2169751;41;20056;-77
2021/08/06 00:04:50;;;;;;;2.67;1.02;;;;;;;18.95;69.10;98946.31;2178826;40;20043;-78
2021/08/06 00:06:27;;;;;;;4.35;1.38;;;;;;;18.85;69.15;98944.09;2182807;40;20705;-78
2021/08/06 00:07:58;;;;;;;3.35;1.05;;;;;;;18.78;69.25;98940.66;2181826;40;20033;-77
2021/08/06 00:09:32;;;;;;;4.25;1.10;;;;;;;18.74;69.47;98934.06;2180227;40;20055;-77
2021/08/06 00:11:05;;;;;;;2.90;1.05;;;;;;;18.74;69.23;98940.28;2181771;40;20036;-77
2021/08/06 00:12:37;;;;;;;2.55;1.20;;;;;;;18.68;69.76;98936.59;2183152;40;20444;-77
2021/08/06 00:14:09;;;;;;;5.55;1.83;;;;;;;18.67;69.41;98950.34;2181404;40;20360;-78
2021/08/06 00:15:41;;;;;;;3.13;1.20;;;;;;;18.65;69.56;98947.03;2183448;40;20131;-77
2021/08/06 00:17:13;;;;;;;4.90;1.13;;;;;;;18.62;69.99;98940.19;2182177;40;20035;-77
2021/08/06 00:18:45;;;;;;;5.28;1.45;;;;;;;18.60;69.92;98939.59;2182491;40;20409;-77
2021/08/06 00:20:16;;;;;;;4.03;1.20;;;;;;;18.58;70.04;98940.88;2181423;40;20409;-77
2021/08/06 00:21:50;;;;;;;3.47;1.17;;;;;;;18.53;70.36;98942.38;2182669;40;20379;-77
2021/08/06 00:23:22;;;;;;;3.00;1.20;;;;;;;18.50;70.21;98939.28;2180343;40;20043;-77
2021/08/06 00:24:54;;;;;;;2.88;1.08;;;;;;;18.48;70.43;98936.81;2183671;40;20063;-78
2021/08/06 00:26:26;;;;;;;4.22;1.02;;;;;;;18.47;70.43;98939.72;2181161;40;20133;-77
2021/08/06 00:27:58;;;;;;;3.45;1.20;;;;;;;18.45;70.57;98937.25;2183970;40;20409;-77
2021/08/06 00:29:28;;;;;;;2.95;1.08;;;;;;;18.48;70.63;98939.50;2182001;40;20328;-77
2021/08/06 00:31:00;;;;;;;3.10;0.95;;;;;;;18.50;70.46;98937.41;2183209;40;20068;-77
2021/08/06 00:32:32;;;;;;;2.50;0.90;;;;;;;18.51;70.38;98939.06;2183020;40;20067;-77
2021/08/06 00:34:04;;;;;;;2.97;1.45;;;;;;;18.54;70.10;98929.69;2183721;40;20032;-78
2021/08/06 00:35:35;;;;;;;3.45;0.90;;;;;;;18.59;69.97;98931.72;2188195;40;20379;-77
2021/08/06 00:37:09;;;;;;;3.85;1.20;;;;;;;18.61;69.86;98932.31;2183830;40;20063;-78
2021/08/06 00:38:40;;;;;;;3.00;1.00;;;;;;;18.60;69.65;98930.66;2179567;40;20051;-78
2021/08/06 00:40:13;;;;;;;2.58;0.95;;;;;;;18.57;69.68;98931.91;2181208;40;20031;-78
2021/08/06 00:41:45;;;;;;;2.78;1.02;;;;;;;18.51;69.90;98922.84;2182005;40;20047;-77
2021/08/06 00:43:17;;;;;;;2.90;1.00;;;;;;;18.55;69.68;98925.94;2179671;40;20066;-78
2021/08/06 00:44:48;;;;;;;5.05;1.13;;;;;;;18.53;69.60;98925.31;2182665;40;20054;-77
2021/08/06 00:46:20;;;;;;;3.38;1.02;;;;;;;18.51;69.92;98922.00;2182910;40;20028;-78
2021/08/06 00:47:53;;;;;;;2.83;1.05;;;;;;;18.47;69.86;98916.22;2180126;40;20075;-77
2021/08/06 00:49:25;;;;;;;3.67;1.10;;;;;;;18.45;70.03;98922.91;2181535;40;20059;-77
2021/08/06 00:50:58;;;;;;;3.50;0.80;;;;;;;18.42;69.97;98920.63;2183778;40;20059;-78
2021/08/06 00:52:31;;;;;;;2.30;0.80;;;;;;;18.43;69.88;98912.28;2181597;40;20044;-77
2021/08/06 00:54:03;;;;;;;2.10;0.80;;;;;;;18.42;69.88;98905.22;2182354;40;20059;-77
2021/08/06 00:55:35;;;;;;;2.25;0.93;;;;;;;18.35;70.21;98918.84;2180881;40;20067;-77
2021/08/06 00:57:07;;;;;;;3.10;0.90;;;;;;;18.29;70.17;98911.59;2179435;40;20044;-77
2021/08/06 00:58:40;;;;;;;2.80;1.02;;;;;;;18.28;70.15;98914.53;2182264;40;20039;-78
2021/08/06 01:00:12;;;;;;;1.98;0.70;;;;;;;18.24;70.21;98914.16;2181091;40;20055;-77
2021/08/06 01:01:50;;;;;;;2.13;0.80;;;;;;;18.23;70.62;98916.00;2179943;40;20060;-77
2021/08/06 01:03:25;;;;;;;3.95;0.90;;;;;;;18.19;70.42;98909.41;2183338;40;20039;-78
2021/08/06 01:05:03;;;;;;;3.08;1.00;;;;;;;18.19;70.50;98911.28;2180442;40;20036;-78
2021/08/06 01:06:43;;;;;;;3.78;0.90;;;;;;;18.18;70.34;98915.06;2183001;40;20032;-77
2021/08/06 01:08:20;;;;;;;2.20;0.85;;;;;;;18.20;70.71;98911.06;2179987;40;20055;-77
2021/08/06 01:09:56;;;;;;;4.07;0.90;;;;;;;18.20;70.27;98910.22;2182553;40;20060;-77
2021/08/06 01:11:31;;;;;;;2.83;0.98;;;;;;;18.16;70.49;98917.97;2182222;40;20320;-77
2021/08/06 01:13:09;;;;;;;3.80;0.90;;;;;;;18.17;70.64;98910.69;2178846;40;20322;-77
2021/08/06 01:14:43;;;;;;;5.43;1.00;;;;;;;18.12;70.71;98907.81;2184118;40;20071;-77
2021/08/06 01:16:18;;;;;;;2.30;0.90;;;;;;;18.12;70.63;98918.63;2184816;40;20066;-78
2021/08/06 01:17:52;;;;;;;3.85;1.13;;;;;;;18.08;70.66;98910.13;2185306;40;20032;-78
2021/08/06 01:19:26;;;;;;;2.80;0.90;;;;;;;18.08;70.95;98915.53;2185126;40;20046;-78
2021/08/06 01:21:03;;;;;;;2.22;1.00;;;;;;;18.07;70.79;98913.88;2182844;40;20064;-78
2021/08/06 01:22:41;;;;;;;2.75;1.15;;;;;;;18.12;70.52;98914.06;2183582;40;20055;-78
2021/08/06 01:24:18;;;;;;;2.13;0.88;;;;;;;18.15;70.59;98910.88;2171736;41;20028;-78
2021/08/06 01:25:53;;;;;;;2.60;0.90;;;;;;;18.15;70.30;98905.47;2182190;40;20333;-77
2021/08/06 01:27:26;;;;;;;2.50;0.90;;;;;;;18.16;70.19;98907.13;2180180;40;20679;-77
2021/08/06 01:28:59;;;;;;;3.67;1.33;;;;;;;18.14;70.23;98911.13;2182890;40;20059;-77
2021/08/06 01:30:31;;;;;;;4.20;0.90;;;;;;;18.06;70.48;98913.06;2180713;40;20043;-78
2021/08/06 01:32:03;;;;;;;2.92;0.80;;;;;;;18.03;70.54;98915.38;2182912;40;20040;-78
2021/08/06 01:33:35;;;;;;;1.95;0.80;;;;;;;18.05;70.43;98913.25;2180954;40;20062;-77
2021/08/06 01:35:08;;;;;;;2.47;0.80;;;;;;;18.08;70.29;98912.84;2179754;40;20043;-77
2021/08/06 01:36:40;;;;;;;2.42;0.60;;;;;;;18.08;70.58;98910.13;2181310;40;20040;-78
2021/08/06 01:38:13;;;;;;;2.13;0.80;;;;;;;18.10;70.37;98916.16;2182004;40;20028;-78
2021/08/06 01:39:45;;;;;;;2.88;0.98;;;;;;;18.07;70.32;98913.88;2181351;40;20405;-78
2021/08/06 01:41:27;;;;;;;2.03;0.80;;;;;;;18.09;70.17;98909.91;2163056;41;20065;-77
2021/08/06 01:43:09;;;;;;;3.88;0.90;;;;;;;18.02;70.24;98921.84;2182280;40;20078;-77
2021/08/06 01:44:51;;;;;;;2.15;1.00;;;;;;;18.01;70.66;98910.19;2169261;40;20436;-77
2021/08/06 01:46:28;;;;;;;3.55;0.95;;;;;;;18.04;70.12;98917.03;2180576;40;20047;-77
2021/08/06 01:48:00;;;;;;;2.45;0.85;;;;;;;18.01;70.60;98912.06;2183171;40;20059;-78
2021/08/06 01:49:35;;;;;;;1.98;0.75;;;;;;;18.03;70.56;98918.09;2185320;40;20067;-78
2021/08/06 01:51:09;;;;;;;2.53;0.90;;;;;;;18.04;70.46;98914.34;2179705;40;20043;-78
2021/08/06 01:52:50;;;;;;;2.55;0.93;;;;;;;18.05;70.51;98911.41;2181615;40;20040;-77
2021/08/06 01:54:23;;;;;;;3.42;1.00;;;;;;;18.02;70.31;98911.84;2181296;40;20063;-77
2021/08/06 01:55:59;;;;;;;2.17;0.90;;;;;;;18.03;70.36;98912.69;2182414;40;20352;-77
2021/08/06 01:57:34;;;;;;;3.45;0.77;;;;;;;18.01;70.50;98909.38;2181501;40;20348;-77
2021/08/06 01:59:07;;;;;;;2.72;1.10;;;;;;;17.98;70.42;98921.47;2179251;40;20039;-77
2021/08/06 02:00:44;;;;;;;3.38;1.30;;;;;;;17.94;70.63;98917.50;2181122;40;20059;-78
2021/08/06 02:02:16;;;;;;;3.40;1.00;;;;;;;17.88;70.56;98911.09;2183192;40;20153;-78
2021/08/06 02:03:49;;;;;;;2.42;0.90;;;;;;;17.89;70.83;98918.16;2182237;40;20044;-78
2021/08/06 02:05:21;;;;;;;3.00;1.00;;;;;;;17.91;70.77;98916.06;2182510;40;20036;-78
2021/08/06 02:06:53;;;;;;;3.55;0.90;;;;;;;17.91;70.86;98917.94;2164102;41;20076;-78
2021/08/06 02:08:26;;;;;;;2.72;0.80;;;;;;;17.90;70.62;98917.13;2176735;41;20052;-77
2021/08/06 02:09:58;;;;;;;6.10;1.00;;;;;;;17.91;70.80;98921.47;2181520;40;20039;-77
2021/08/06 02:11:30;;;;;;;3.13;1.10;;;;;;;17.92;70.40;98915.03;2179015;40;20044;-78
2021/08/06 02:13:04;;;;;;;3.03;1.00;;;;;;;17.91;70.70;98916.06;2181290;40;20088;-78
2021/08/06 02:14:36;;;;;;;2.85;1.20;;;;;;;17.90;70.76;98919.81;2183173;40;20043;-77
2021/08/06 02:16:08;;;;;;;2.75;1.27;;;;;;;17.91;70.49;98923.34;2181564;40;20032;-77
2021/08/06 02:17:42;;;;;;;2.22;0.80;;;;;;;17.85;70.57;98922.38;2182782;40;20067;-78
2021/08/06 02:19:15;;;;;;;2.63;0.90;;;;;;;17.83;70.82;98919.03;2183776;40;20051;-78
2021/08/06 02:20:47;;;;;;;2.40;0.88;;;;;;;17.82;70.69;98920.09;2183642;40;20055;-78
2021/08/06 02:22:22;;;;;;;3.05;1.15;;;;;;;17.82;70.70;98919.25;2182483;40;20036;-78
2021/08/06 02:23:58;;;;;;;3.47;1.10;;;;;;;17.81;70.99;98915.72;2185373;40;20036;-77
2021/08/06 02:25:30;;;;;;;2.40;0.80;;;;;;;17.81;70.94;98914.88;2183567;40;20460;-78
2021/08/06 02:27:03;;;;;;;2.60;0.80;;;;;;;17.83;70.90;98908.22;2184841;40;20055;-78
2021/08/06 02:28:37;;;;;;;2.30;0.80;;;;;;;17.87;70.94;98914.03;2182763;40;20043;-77
2021/08/06 02:30:11;;;;;;;3.08;1.08;;;;;;;17.88;70.25;98915.69;2184979;40;20117;-78
2021/08/06 02:31:45;;;;;;;4.63;0.90;;;;;;;17.88;70.42;98905.69;2184102;40;20058;-77
2021/08/06 02:33:17;;;;;;;2.50;0.80;;;;;;;17.87;70.66;98903.22;2185576;40;20036;-78
2021/08/06 02:34:50;;;;;;;3.83;0.93;;;;;;;17.88;70.52;98900.28;2181652;40;20036;-78
2021/08/06 02:36:22;;;;;;;3.08;0.90;;;;;;;17.91;70.38;98901.72;2181601;40;20038;-78
2021/08/06 02:37:54;;;;;;;4.80;1.40;;;;;;;17.85;70.42;98897.19;2178746;40;20040;-78
2021/08/06 02:39:28;;;;;;;2.63;0.90;;;;;;;17.85;70.36;98897.19;2181070;40;20047;-78
2021/08/06 02:41:00;;;;;;;2.15;0.88;;;;;;;17.83;70.37;98897.41;2181552;40;20048;-78
2021/08/06 02:42:33;;;;;;;6.10;1.30;;;;;;;17.81;70.78;98894.09;2180786;40;20036;-78
2021/08/06 02:44:08;;;;;;;3.85;0.93;;;;;;;17.84;70.45;98895.53;2170938;41;20075;-77
2021/08/06 02:45:40;;;;;;;4.90;1.10;;;;;;;17.87;70.24;98887.00;2181097;40;20067;-78
2021/08/06 02:47:12;;;;;;;4.45;1.45;;;;;;;17.87;70.08;98884.28;2181386;40;20041;-78
2021/08/06 02:48:44;;;;;;;2.60;1.02;;;;;;;17.89;70.12;98885.72;2179488;40;20417;-78
2021/08/06 02:50:16;;;;;;;2.65;0.90;;;;;;;17.91;69.93;98883.63;2180549;40;20063;-78
2021/08/06 02:51:48;;;;;;;3.83;0.80;;;;;;;17.90;70.16;98881.16;2181058;40;20036;-77
2021/08/06 02:53:20;;;;;;;2.92;0.93;;;;;;;17.92;69.78;98885.28;2180362;40;20040;-78
2021/08/06 02:54:51;;;;;;;3.83;0.93;;;;;;;17.93;69.80;98876.13;2182327;40;20032;-77
2021/08/06 02:56:23;;;;;;;1.63;0.65;;;;;;;17.89;69.94;98880.31;2182469;40;20055;-77
2021/08/06 02:57:55;;;;;;;2.30;0.73;;;;;;;17.88;70.03;98875.94;2181979;40;20055;-78
2021/08/06 02:59:28;;;;;;;4.05;0.85;;;;;;;17.91;70.02;98867.41;2182273;40;20036;-77
2021/08/06 03:01:00;;;;;;;4.75;0.85;;;;;;;17.91;69.98;98872.81;2179044;40;20031;-78
2021/08/06 03:02:31;;;;;;;2.00;0.70;;;;;;;17.95;69.64;98872.38;2182063;40;20056;-77
2021/08/06 03:04:03;;;;;;;4.85;1.25;;;;;;;17.97;69.62;98873.00;2180274;40;20032;-77
2021/08/06 03:05:35;;;;;;;4.28;0.85;;;;;;;18.00;69.53;98869.84;2180818;40;20036;-77
2021/08/06 03:07:07;;;;;;;6.18;1.13;;;;;;;17.97;69.54;98867.59;2180121;40;20435;-77
2021/08/06 03:08:39;;;;;;;2.50;0.85;;;;;;;17.95;69.49;98867.78;2180717;40;20606;-77
2021/08/06 03:10:12;;;;;;;2.15;0.88;;;;;;;17.92;69.72;98871.78;2177442;40;20047;-77
2021/08/06 03:11:43;;;;;;;4.25;1.00;;;;;;;17.95;69.43;98870.50;2180642;40;20042;-77
2021/08/06 03:13:15;;;;;;;3.38;1.00;;;;;;;17.97;69.38;98860.31;2182874;40;20056;-77
2021/08/06 03:14:48;;;;;;;2.55;1.02;;;;;;;17.93;69.54;98864.47;2180110;40;20067;-78
2021/08/06 03:16:20;;;;;;;2.20;0.88;;;;;;;17.88;69.68;98862.44;2180003;40;20036;-77
2021/08/06 03:17:52;;;;;;;2.38;0.90;;;;;;;17.87;69.63;98866.19;2180842;40;20340;-77
2021/08/06 03:19:24;;;;;;;2.40;1.02;;;;;;;17.89;69.46;98860.56;2177018;41;20047;-78
2021/08/06 03:20:56;;;;;;;2.60;0.90;;;;;;;17.91;69.45;98864.69;2180271;40;20440;-77
2021/08/06 03:22:27;;;;;;;4.75;1.00;;;;;;;17.92;69.75;98866.38;2183304;40;20047;-77
2021/08/06 03:23:59;;;;;;;2.90;0.90;;;;;;;17.97;69.38;98864.88;2181472;40;20055;-77
2021/08/06 03:25:31;;;;;;;2.72;1.00;;;;;;;18.03;69.38;98866.72;2182533;40;20066;-78
2021/08/06 03:27:03;;;;;;;3.38;1.00;;;;;;;18.04;69.09;98862.97;2181033;40;20040;-77
2021/08/06 03:28:35;;;;;;;3.05;1.30;;;;;;;18.07;68.98;98862.50;2182128;40;20028;-76
2021/08/06 03:30:11;;;;;;;2.28;0.90;;;;;;;18.11;68.78;98860.19;2183159;40;20479;-77
2021/08/06 03:31:43;;;;;;;2.78;0.90;;;;;;;18.11;68.77;98861.03;2182637;40;20401;-77
2021/08/06 03:33:14;;;;;;;2.33;0.90;;;;;;;18.13;68.92;98858.09;2164634;41;20040;-78
2021/08/06 03:34:46;;;;;;;2.13;0.82;;;;;;;18.08;69.18;98856.88;2182040;40;20047;-78
2021/08/06 03:36:18;;;;;;;2.30;0.85;;;;;;;18.08;69.03;98859.59;2181741;40;20074;-78
2021/08/06 03:37:50;;;;;;;3.40;1.05;;;;;;;18.10;69.18;98862.06;2180832;40;20047;-77
2021/08/06 03:39:22;;;;;;;2.40;0.93;;;;;;;18.08;69.02;98862.28;2181152;40;20044;-78
2021/08/06 03:40:54;;;;;;;2.92;1.02;;;;;;;18.09;69.26;98860.41;2180716;40;20044;-77
2021/08/06 03:42:26;;;;;;;3.17;0.90;;;;;;;18.11;69.01;98869.13;2170019;41;20056;-77
2021/08/06 03:43:58;;;;;;;3.80;1.10;;;;;;;18.09;69.12;98874.75;2180373;40;20048;-78
2021/08/06 03:45:31;;;;;;;3.03;1.00;;;;;;;18.00;69.27;98884.19;2180252;40;20032;-77
2021/08/06 03:47:04;;;;;;;2.65;1.00;;;;;;;17.95;69.39;98885.91;2182013;40;20048;-78
2021/08/06 03:48:35;;;;;;;2.88;1.05;;;;;;;17.88;69.79;98894.88;2182979;40;20077;-77
2021/08/06 03:50:08;;;;;;;4.15;1.25;;;;;;;17.88;70.12;98889.47;2180253;40;20051;-77
2021/08/06 03:51:40;;;;;;;3.78;1.30;;;;;;;17.88;70.22;98900.28;2183097;40;20324;-77
2021/08/06 03:53:12;;;;;;;4.93;1.42;;;;;;;17.83;70.56;98896.56;2181765;40;20048;-78
2021/08/06 03:54:44;;;;;;;3.38;1.10;;;;;;;17.78;71.10;98905.34;2183690;40;20067;-78
2021/08/06 03:56:16;;;;;;;4.20;1.20;;;;;;;17.74;71.70;98899.56;2181721;40;20035;-77
2021/08/06 03:57:51;;;;;;;4.20;1.20;;;;;;;17.70;72.27;98898.34;2182587;40;20032;-77
2021/08/06 03:59:23;;;;;;;3.35;1.13;;;;;;;17.74;72.30;98902.25;2179553;40;20149;-77
2021/08/06 04:00:56;;;;;;;5.47;1.40;;;;;;;17.74;72.74;98896.03;2182898;40;20389;-77
2021/08/06 04:02:28;;;;;;;2.83;1.05;;;;;;;17.75;72.70;98895.00;2183269;40;20031;-77
2021/08/06 04:03:59;;;;;;;3.20;1.27;;;;;;;17.75;72.86;98900.41;2183044;40;20278;-77
2021/08/06 04:05:31;;;;;;;3.13;1.08;;;;;;;17.74;73.35;98898.75;2164248;41;20053;-77
2021/08/06 04:07:03;;;;;;;4.00;1.33;;;;;;;17.70;73.62;98903.75;2181586;40;20340;-77
2021/08/06 04:08:35;;;;;;;3.03;1.33;;;;;;;17.73;73.79;98891.69;2182005;40;20305;-77
2021/08/06 04:10:08;;;;;;;2.78;1.10;;;;;;;17.73;73.68;98892.50;2182083;40;20332;-77
2021/08/06 04:11:40;;;;;;;2.35;0.90;;;;;;;17.76;73.93;98885.81;2182600;40;20635;-77
2021/08/06 04:13:12;;;;;;;2.85;1.33;;;;;;;17.80;74.21;98897.03;2180218;40;20056;-77
2021/08/06 04:14:44;;;;;;;2.90;1.10;;;;;;;17.82;74.21;98897.63;2181903;40;20043;-77
2021/08/06 04:16:17;;;;;;;2.70;1.15;;;;;;;17.84;74.58;98898.22;2182469;40;20047;-77
2021/08/06 04:17:49;;;;;;;2.65;0.90;;;;;;;17.86;74.56;98891.56;2179886;40;20040;-78
2021/08/06 04:19:21;;;;;;;2.83;1.10;;;;;;;17.88;74.51;98891.34;2181604;40;20428;-77
2021/08/06 04:20:53;;;;;;;3.15;1.33;;;;;;;17.87;74.96;98895.91;2183121;40;20039;-77
2021/08/06 04:22:25;;;;;;;2.88;1.15;;;;;;;17.90;75.04;98891.97;2181265;40;20056;-77
2021/08/06 04:23:57;;;;;;;2.67;1.13;;;;;;;17.92;74.99;98890.69;2179746;40;20063;-77
2021/08/06 04:25:29;;;;;;;2.92;1.02;;;;;;;17.94;75.33;98890.47;2182934;40;20020;-77
2021/08/06 04:27:01;;;;;;;6.20;1.10;;;;;;;17.92;75.38;98877.19;2184125;40;20024;-78
2021/08/06 04:28:33;;;;;;;3.17;1.10;;;;;;;17.88;75.08;98886.75;2182976;40;20602;-77
2021/08/06 04:30:06;;;;;;;2.92;1.13;;;;;;;17.84;75.63;98882.88;2184080;40;20047;-77
2021/08/06 04:31:39;;;;;;;3.13;1.20;;;;;;;17.81;75.83;98887.84;2182661;40;20043;-77
2021/08/06 04:33:10;;;;;;;3.58;1.40;;;;;;;17.75;75.65;98876.88;2184811;40;20323;-78
2021/08/06 04:34:42;;;;;;;4.30;1.70;;;;;;;17.65;76.03;98865.75;2184892;40;20058;-77
2021/08/06 04:36:14;;;;;;;2.58;1.10;;;;;;;17.57;76.32;98860.63;2181661;40;20052;-77
2021/08/06 04:37:47;;;;;;;2.85;1.27;;;;;;;17.49;76.64;98869.00;2184050;40;20132;-77
2021/08/06 04:39:19;;;;;;;3.03;1.10;;;;;;;17.39;77.23;98872.16;2182061;40;20028;-77
2021/08/06 04:40:51;;;;;;;4.53;1.10;;;;;;;17.37;77.37;98866.16;2183498;40;20066;-77
2021/08/06 04:42:23;;;;;;;5.55;1.40;;;;;;;17.37;77.53;98871.56;2168063;41;20064;-77
2021/08/06 04:43:55;;;;;;;2.92;1.20;;;;;;;17.36;77.40;98870.72;2182993;40;20040;-77
2021/08/06 04:45:27;;;;;;;3.67;1.33;;;;;;;17.37;77.71;98882.38;2182402;40;20035;-77
2021/08/06 04:47:00;;;;;;;7.70;1.65;;;;;;;17.38;77.29;98878.63;2183987;40;20028;-77
2021/08/06 04:48:32;;;;;;;4.97;1.30;;;;;;;17.38;77.17;98873.22;2182877;40;20043;-77
2021/08/06 04:50:04;;;;;;;3.63;1.38;;;;;;;17.37;77.02;98882.38;2184352;40;20040;-78
2021/08/06 04:51:36;;;;;;;3.17;1.30;;;;;;;17.35;77.16;98879.06;2182196;40;20058;-77
2021/08/06 04:53:08;;;;;;;3.38;1.13;;;;;;;17.36;77.16;98880.72;2181812;40;20055;-77
2021/08/06 04:54:39;;;;;;;5.88;1.10;;;;;;;17.34;76.79;98880.09;2180508;40;20052;-77
2021/08/06 04:56:11;;;;;;;2.40;0.98;;;;;;;17.37;76.71;98875.09;2180429;40;20040;-77
2021/08/06 04:57:44;;;;;;;3.47;1.35;;;;;;;17.41;76.96;98884.41;2163608;41;21814;-77
2021/08/06 04:59:16;;;;;;;3.65;1.20;;;;;;;17.43;76.47;98881.50;2177571;40;20403;-77
2021/08/06 05:00:49;;;;;;;3.63;1.35;;;;;;;17.42;76.75;98879.84;2170033;41;20047;-78
2021/08/06 05:02:22;;;;;;;5.13;1.27;;;;;;;17.45;76.66;98891.03;2164314;41;20052;-78
2021/08/06 05:03:54;;;;;;;3.97;1.20;;;;;;;17.47;76.46;98896.22;2179135;40;20043;-78
2021/08/06 05:05:25;;;;;;;3.75;1.10;;;;;;;17.40;76.36;98888.16;2186046;40;20071;-78
2021/08/06 05:06:57;;;;;;;3.88;1.30;;;;;;;17.40;76.48;98892.72;2185805;40;20039;-78
2021/08/06 05:08:29;;;;;;;3.30;1.45;;;;;;;17.43;76.64;98892.31;2185215;40;20051;-77
2021/08/06 05:10:01;;;;;;;3.53;1.30;;;;;;;17.46;76.66;98898.09;2186958;40;20370;-77
2021/08/06 05:11:33;;;;;;;2.22;0.90;;;;;;;17.49;76.75;98896.81;2186042;40;20059;-77
2021/08/06 05:13:04;;;;;;;3.13;1.30;;;;;;;17.53;76.46;98899.91;2185918;40;20040;-77
2021/08/06 05:14:36;;;;;;;3.67;1.20;;;;;;;17.52;76.63;98898.28;2182969;40;20052;-78
2021/08/06 05:16:08;;;;;;;5.22;1.40;;;;;;;17.51;76.75;98900.13;2180365;40;20055;-76
2021/08/06 05:17:41;;;;;;;3.85;1.30;;;;;;;17.48;76.46;98905.16;2182360;40;20066;-76
2021/08/06 05:19:13;;;;;;;3.95;1.42;;;;;;;17.46;76.90;98898.09;2181234;40;20040;-77
2021/08/06 05:20:45;;;;;;;4.15;1.38;;;;;;;17.47;76.85;98907.03;2181617;40;20141;-76
2021/08/06 05:22:17;;;;;;;2.90;1.20;;;;;;;17.46;76.56;98897.28;2183232;40;20086;-77
2021/08/06 05:23:48;;;;;;;3.00;1.27;;;;;;;17.44;76.54;98900.19;2181123;40;20028;-77
2021/08/06 05:25:20;;;;;;;3.80;1.45;;;;;;;17.44;76.63;98910.16;2183768;40;20044;-77
2021/08/06 05:26:52;;;;;;;5.28;1.20;;;;;;;17.40;76.34;98909.78;2182477;40;20059;-77
2021/08/06 05:28:24;;;;;;;3.53;1.23;;;;;;;17.32;76.72;98907.34;2180487;40;20039;-77
2021/08/06 05:29:56;;;;;;;6.45;1.85;;;;;;;17.31;76.81;98911.06;2180928;40;20048;-76
2021/08/06 05:31:27;;;;;;;4.93;1.60;;;;;;;17.26;77.17;98906.31;2165514;41;20036;-78
2021/08/06 05:33:01;;;;;;;4.30;1.40;;;;;;;17.23;77.75;98898.66;2158929;41;20072;-77
2021/08/06 05:34:33;;;;;;;5.70;1.30;;;;;;;17.18;78.00;98906.59;2181223;40;20052;-76
2021/08/06 05:36:05;;;;;;;3.10;1.58;;;;;;;17.15;78.31;98909.69;2179323;40;20345;-77
2021/08/06 05:37:37;;;;;;;3.60;1.30;;;;;;;17.11;78.97;98906.59;2183004;40;20074;-77
2021/08/06 05:39:08;;;;;;;4.57;1.30;;;;;;;17.09;78.79;98918.69;2182590;40;20425;-76
2021/08/06 05:40:42;;;;;;;3.50;1.70;;;;;;;17.10;79.04;98913.03;2182696;40;20043;-76
2021/08/06 05:42:13;;;;;;;4.15;1.73;;;;;;;17.09;79.26;98911.38;2181743;40;20348;-76
2021/08/06 05:43:45;;;;;;;2.95;1.30;;;;;;;17.08;79.15;98923.22;2180040;40;20064;-76
2021/08/06 05:45:17;;;;;;;3.63;1.33;;;;;;;17.06;79.63;98913.69;2177920;41;20041;-77
2021/08/06 05:46:49;;;;;;;4.43;1.23;;;;;;;17.02;79.78;98923.25;2181636;40;20059;-76
2021/08/06 05:48:22;;;;;;;4.03;1.67;;;;;;;17.02;79.91;98925.94;2180585;40;20320;-76
2021/08/06 05:49:54;;;;;;;5.00;1.40;;;;;;;17.00;79.85;98928.88;2180874;40;20135;-77
2021/08/06 05:51:26;;;;;;;4.28;1.80;;;;;;;16.99;80.29;98925.34;2180622;40;20043;-76
2021/08/06 05:52:57;;;;;;;4.18;1.63;;;;;;;16.99;80.21;98925.34;2180164;40;20642;-76
2021/08/06 05:54:29;;;;;;;3.55;1.58;;;;;;;17.00;80.05;98921.59;2181277;40;20046;-76
2021/08/06 05:56:01;;;;;;;3.60;1.58;;;;;;;16.99;80.22;98924.50;2180947;40;20020;-76
2021/08/06 05:57:33;;;;;;;3.50;1.40;;;;;;;17.02;80.09;98923.25;2183703;40;20091;-76
2021/08/06 05:59:05;;;;;;;4.72;1.80;;;;;;;17.06;80.26;98924.50;2182755;40;20036;-76
2021/08/06 06:00:37;;;;;;;3.40;1.60;;;;;;;17.06;80.07;98917.22;2182712;40;20028;-77
2021/08/06 06:02:08;;;;;;;4.13;1.33;;;;;;;17.09;79.91;98911.38;2183220;40;20070;-76
2021/08/06 06:03:41;;;;;;;5.40;1.90;;;;;;;17.14;80.09;98921.53;2169269;41;20068;-77
2021/08/06 06:05:13;;;;;;;4.63;1.67;;;;;;;17.12;79.63;98907.41;2179389;40;20044;-77
2021/08/06 06:06:45;;;;;;;4.38;2.00;;;;;;;17.17;79.96;98910.31;2182929;40;20044;-77
2021/08/06 06:08:17;;;;;;;4.25;1.88;;;;;;;17.22;79.53;98906.97;2182960;40;20035;-75
2021/08/06 06:09:48;;;;;;;4.45;1.65;;;;;;;17.27;79.51;98909.84;2182019;40;20051;-77
2021/08/06 06:11:20;;;;;;;4.00;1.85;;;;;;;17.27;79.29;98910.69;2178483;40;20032;-76
2021/08/06 06:12:52;;;;;;;4.63;1.70;;;;;;;17.26;79.28;98914.44;2182500;40;20044;-76
2021/08/06 06:14:25;;;;;;;4.85;1.60;;;;;;;17.25;79.46;98912.78;2180688;40;20503;-76
2021/08/06 06:15:57;;;;;;;4.15;1.20;;;;;;;17.26;79.53;98908.19;2181098;40;20047;-76
2021/08/06 06:17:28;;;;;;;3.33;1.52;;;;;;;17.24;79.56;98907.59;2184004;40;20032;-76
2021/08/06 06:19:02;;;;;;;3.60;1.42;;;;;;;17.24;79.52;98913.00;2180581;40;20060;-76
2021/08/06 06:20:33;;;;;;;3.55;1.40;;;;;;;17.27;79.39;98913.38;2177502;41;20064;-77
2021/08/06 06:22:05;;;;;;;4.85;1.50;;;;;;;17.29;79.61;98913.97;2180694;40;20035;-76
2021/08/06 06:23:38;;;;;;;4.53;1.45;;;;;;;17.30;79.51;98918.34;2183628;40;20043;-76
2021/08/06 06:25:11;;;;;;;5.40;1.73;;;;;;;17.33;79.91;98918.94;2179324;40;20066;-76
2021/08/06 06:26:42;;;;;;;4.63;1.63;;;;;;;17.31;79.94;98916.47;2183066;40;20041;-77
2021/08/06 06:28:14;;;;;;;4.50;1.63;;;;;;;17.33;80.14;98918.94;2179992;40;20039;-76
2021/08/06 06:29:46;;;;;;;4.05;1.60;;;;;;;17.33;80.09;98922.50;2169520;41;20041;-76
2021/08/06 06:31:19;;;;;;;4.30;1.50;;;;;;;17.34;80.01;98926.00;2181903;40;20428;-76
2021/08/06 06:32:50;;;;;;;4.53;1.60;;;;;;;17.37;79.72;98926.41;2177610;40;20071;-76
2021/08/06 06:34:24;;;;;;;3.90;1.55;;;;;;;17.38;79.57;98927.25;2183576;40;20043;-76
2021/08/06 06:35:56;;;;;;;3.22;1.23;;;;;;;17.38;79.71;98933.47;2180781;40;20032;-76
2021/08/06 06:37:28;;;;;;;4.18;1.98;;;;;;;17.40;79.50;98922.44;2179391;40;20056;-76
2021/08/06 06:38:59;;;;;;;5.43;1.92;;;;;;;17.41;79.74;98921.41;2179621;40;20062;-76
2021/08/06 06:40:31;;;;;;;4.10;1.55;;;;;;;17.41;79.55;98911.44;2183142;40;20036;-77
2021/08/06 06:42:03;;;;;;;8.52;1.73;;;;;;;17.44;79.22;98919.09;2162723;41;20497;-77
2021/08/06 06:43:35;;;;;;;4.15;1.35;;;;;;;17.49;79.66;98912.22;2182911;40;20028;-76
2021/08/06 06:45:08;;;;;;;4.47;1.60;;;;;;;17.55;79.21;98912.19;2182314;40;20048;-77
2021/08/06 06:46:40;;;;;;;5.90;1.83;;;;;;;17.61;79.10;98910.47;2179637;40;20452;-77
2021/08/06 06:48:12;;;;;;;4.53;1.60;;;;;;;17.62;79.10;98912.09;2181954;40;20063;-78
2021/08/06 06:49:45;;;;;;;3.88;1.67;;;;;;;17.66;79.09;98913.34;2179387;40;20052;-77
2021/08/06 06:51:17;;;;;;;3.95;1.63;;;;;;;17.73;79.10;98918.69;2181959;40;20043;-76
2021/08/06 06:52:49;;;;;;;7.90;1.73;;;;;;;17.84;78.69;98911.75;2186169;40;20047;-76
2021/08/06 06:54:22;;;;;;;4.15;1.70;;;;;;;17.97;78.40;98903.56;2184973;40;20050;-76
2021/08/06 06:55:53;;;;;;;5.07;1.63;;;;;;;18.02;78.17;98905.63;2187469;40;20058;-78
2021/08/06 06:57:25;;;;;;;4.43;2.25;;;;;;;18.08;78.00;98910.97;2184038;40;20028;-78
2021/08/06 06:58:57;;;;;;;4.82;1.90;;;;;;;18.12;77.95;98915.91;2185047;40;20451;-76
2021/08/06 07:00:30;;;;;;;3.65;1.73;;;;;;;18.19;77.84;98900.44;2183514;40;20043;-77
2021/08/06 07:02:02;;;;;;;4.38;1.83;;;;;;;18.21;77.72;98904.59;2184036;40;20052;-77
2021/08/06 07:03:34;;;;;;;3.25;1.50;;;;;;;18.29;77.03;98905.38;2185157;40;20392;-77
2021/08/06 07:05:09;;;;;;;5.15;1.60;;;;;;;18.28;77.05;98909.13;2184744;40;20316;-77
2021/08/06 07:06:41;;;;;;;3.80;1.50;;;;;;;18.26;77.22;98909.34;2184814;40;20059;-77
2021/08/06 07:08:13;;;;;;;3.38;1.35;;;;;;;18.28;77.08;98909.13;2183328;40;20056;-77
2021/08/06 07:09:44;;;;;;;5.32;2.47;;;;;;;18.29;77.33;98910.78;2181498;40;20381;-77
2021/08/06 07:11:16;;;;;;;5.75;2.80;;;;;;;18.30;77.19;98909.72;2183026;40;20043;-76
2021/08/06 07:12:50;;;;;;;4.65;2.08;;;;;;;18.31;77.15;98908.69;2183582;40;20336;-76
2021/08/06 07:14:21;;;;;;;4.28;1.90;;;;;;;18.34;77.05;98913.63;2183981;40;20091;-76
2021/08/06 07:15:53;;;;;;;4.03;1.60;;;;;;;18.35;77.21;98907.16;2184973;40;20047;-77